createdAt,value
2022-08-07T00:00:12.582Z,21.50
2022-08-07T00:02:44.255Z,20.70
2022-08-07T00:05:11.190Z,19.90
2022-08-07T00:07:40.905Z,20.70
2022-08-07T00:10:26.661Z,20.70
2022-08-07T00:13:00.346Z,20.70
2022-08-07T00:15:38.028Z,20.70
2022-08-07T00:18:19.539Z,20.70
2022-08-07T00:20:46.866Z,20.70
2022-08-07T00:23:14.234Z,21.20
2022-08-07T00:25:41.455Z,20.70
2022-08-07T00:28:08.175Z,20.70
2022-08-07T00:30:37.150Z,20.70
2022-08-07T00:33:03.610Z,20.80
2022-08-07T00:35:30.499Z,20.70
2022-08-07T00:37:57.145Z,20.70
2022-08-07T00:40:36.337Z,20.90
2022-08-07T00:43:09.720Z,21.40
2022-08-07T00:45:40.501Z,20.70
2022-08-07T00:48:08.829Z,20.70
2022-08-07T00:50:50.210Z,20.70
2022-08-07T00:53:17.947Z,20.70
2022-08-07T00:56:03.258Z,21.20
2022-08-07T00:58:30.420Z,20.70
2022-08-07T01:00:56.845Z,20.70
2022-08-07T01:03:54.903Z,20.70
2022-08-07T01:06:09.791Z,21.20
2022-08-07T01:08:38.786Z,20.70
2022-08-07T01:12:04.939Z,20.70
2022-08-07T01:13:56.287Z,20.70
2022-08-07T01:16:30.297Z,20.70
2022-08-07T01:18:57.210Z,20.60
2022-08-07T01:21:26.116Z,20.70
2022-08-07T01:23:53.445Z,20.70
2022-08-07T01:26:20.232Z,20.70
2022-08-07T01:28:48.248Z,20.70
2022-08-07T01:31:15.485Z,20.70
2022-08-07T01:33:55.369Z,20.50
2022-08-07T01:36:22.854Z,20.70
2022-08-07T01:39:00.604Z,20.70
2022-08-07T01:41:27.098Z,20.80
2022-08-07T01:43:53.525Z,20.70
2022-08-07T01:46:21.464Z,20.70
2022-08-07T01:48:47.993Z,20.70
2022-08-07T01:52:01.009Z,21.00
2022-08-07T01:54:12.729Z,20.70
2022-08-07T01:56:49.333Z,20.70
2022-08-07T01:59:16.144Z,20.70
2022-08-07T02:02:01.671Z,20.70
2022-08-07T02:04:30.341Z,20.70
2022-08-07T02:06:56.949Z,20.70
2022-08-07T02:09:33.887Z,20.70
2022-08-07T02:12:09.842Z,20.70
2022-08-07T02:14:40.796Z,21.10
2022-08-07T02:17:07.684Z,20.70
2022-08-07T02:20:05.246Z,20.70
2022-08-07T02:22:21.649Z,20.90
2022-08-07T02:24:52.450Z,20.70
2022-08-07T02:27:18.953Z,21.20
2022-08-07T02:29:53.989Z,20.70
2022-08-07T02:32:23.268Z,20.70
2022-08-07T02:34:51.186Z,20.70
2022-08-07T02:37:17.886Z,21.60
2022-08-07T02:40:01.644Z,20.70
2022-08-07T02:42:30.778Z,20.90
2022-08-07T02:44:58.318Z,20.70
2022-08-07T02:47:24.966Z,20.70
2022-08-07T02:49:56.278Z,20.70
2022-08-07T02:52:32.035Z,20.70
2022-08-07T02:54:59.887Z,20.70
2022-08-07T02:57:30.884Z,20.70
2022-08-07T03:00:04.786Z,20.70
2022-08-07T03:02:31.717Z,20.60
2022-08-07T03:04:58.886Z,20.60
2022-08-07T03:08:04.965Z,20.60
2022-08-07T03:10:14.419Z,20.60
2022-08-07T03:12:40.984Z,20.70
2022-08-07T03:15:08.063Z,20.30
2022-08-07T03:17:36.381Z,20.60
2022-08-07T03:20:20.545Z,20.60
2022-08-07T03:22:50.211Z,20.70
2022-08-07T03:25:16.926Z,20.60
2022-08-07T03:28:08.863Z,20.70
2022-08-07T03:30:34.091Z,20.60
2022-08-07T03:33:00.970Z,20.60
2022-08-07T03:35:27.511Z,20.60
2022-08-07T03:38:10.628Z,20.60
2022-08-07T03:40:39.855Z,20.60
2022-08-07T03:43:14.579Z,20.60
2022-08-07T03:45:43.715Z,20.60
2022-08-07T03:48:14.486Z,20.60
2022-08-07T03:50:43.192Z,20.60
2022-08-07T03:53:30.239Z,20.60
2022-08-07T03:56:09.211Z,21.10
2022-08-07T03:59:08.019Z,20.60
2022-08-07T04:01:26.593Z,20.60
2022-08-07T04:03:55.252Z,21.10
2022-08-07T04:06:37.281Z,20.60
2022-08-07T04:09:04.564Z,20.60
2022-08-07T04:12:26.999Z,20.60
2022-08-07T04:14:38.875Z,20.60
2022-08-07T04:17:04.707Z,20.60
2022-08-07T04:19:51.536Z,20.60
2022-08-07T04:22:20.503Z,20.60
2022-08-07T04:24:49.444Z,20.60
2022-08-07T04:27:25.294Z,20.80
2022-08-07T04:30:01.650Z,20.60
2022-08-07T04:32:34.308Z,20.60
2022-08-07T04:35:01.506Z,21.60
2022-08-07T04:37:30.524Z,20.60
2022-08-07T04:40:16.926Z,20.60
2022-08-07T04:42:46.125Z,20.60
2022-08-07T04:45:44.429Z,20.60
2022-08-07T04:48:10.660Z,20.60
2022-08-07T04:50:37.439Z,20.60
2022-08-07T04:53:06.039Z,20.60
2022-08-07T04:58:10.639Z,20.60
2022-08-07T04:58:33.713Z,20.60
2022-08-07T05:01:13.549Z,20.60
2022-08-07T05:04:06.503Z,20.60
2022-08-07T05:06:28.605Z,20.60
2022-08-07T05:09:10.233Z,20.60
2022-08-07T05:11:57.577Z,20.60
2022-08-07T05:14:52.167Z,20.60
2022-08-07T05:17:11.890Z,20.60
2022-08-07T05:19:44.917Z,20.80
2022-08-07T05:22:11.855Z,20.60
2022-08-07T05:24:40.492Z,20.60
2022-08-07T05:27:07.234Z,20.60
2022-08-07T05:29:51.163Z,20.60
2022-08-07T05:32:20.158Z,20.60
2022-08-07T05:34:48.248Z,20.60
2022-08-07T05:37:16.241Z,20.60
2022-08-07T05:40:16.622Z,20.60
2022-08-07T05:42:39.137Z,20.70
2022-08-07T05:45:26.231Z,20.80
2022-08-07T05:48:01.843Z,20.60
2022-08-07T05:50:29.249Z,20.60
2022-08-07T05:52:55.862Z,20.60
2022-08-07T05:55:22.294Z,21.10
2022-08-07T05:57:49.358Z,20.60
2022-08-07T06:00:17.876Z,20.60
2022-08-07T06:02:44.414Z,20.60
2022-08-07T06:05:15.711Z,20.60
2022-08-07T06:08:29.376Z,20.60
2022-08-07T06:10:28.933Z,20.60
2022-08-07T06:12:55.737Z,20.60
2022-08-07T06:15:22.233Z,20.60
2022-08-07T06:18:06.016Z,20.60
2022-08-07T06:20:50.880Z,20.60
2022-08-07T06:23:46.188Z,20.60
2022-08-07T06:26:05.295Z,20.60
2022-08-07T06:28:33.575Z,20.60
2022-08-07T06:31:00.040Z,20.60
2022-08-07T06:33:26.531Z,20.60
2022-08-07T06:36:06.673Z,20.60
2022-08-07T06:38:39.627Z,20.60
2022-08-07T06:42:00.907Z,20.60
2022-08-07T06:44:11.803Z,20.60
2022-08-07T06:46:39.881Z,20.60
2022-08-07T06:49:06.490Z,20.60
2022-08-07T06:51:33.880Z,20.60
2022-08-07T06:55:34.547Z,20.60
2022-08-07T06:56:49.731Z,20.60
2022-08-07T07:00:16.953Z,20.60
2022-08-07T07:02:03.517Z,20.60
2022-08-07T07:04:32.923Z,20.90
2022-08-07T07:07:01.837Z,20.60
2022-08-07T07:09:31.414Z,20.60
2022-08-07T07:12:08.217Z,20.30
2022-08-07T07:14:37.423Z,20.70
2022-08-07T07:17:04.386Z,20.80
2022-08-07T07:19:56.157Z,21.10
2022-08-07T07:22:35.837Z,20.60
2022-08-07T07:26:33.236Z,20.60
2022-08-07T07:27:55.606Z,20.60
2022-08-07T07:30:26.565Z,20.60
2022-08-07T07:33:04.212Z,20.60
2022-08-07T07:35:33.490Z,20.70
2022-08-07T07:38:02.893Z,20.60
2022-08-07T07:40:32.065Z,20.60
2022-08-07T07:42:58.495Z,20.60
2022-08-07T07:46:37.730Z,20.60
2022-08-07T07:48:35.906Z,20.60
2022-08-07T07:51:02.871Z,20.60
2022-08-07T07:53:34.814Z,20.60
2022-08-07T07:56:01.542Z,20.50
2022-08-07T07:58:28.022Z,20.60
2022-08-07T08:00:54.490Z,20.60
2022-08-07T08:04:06.025Z,20.60
2022-08-07T08:06:08.157Z,20.60
2022-08-07T08:08:39.532Z,20.60
2022-08-07T08:11:13.653Z,21.10
2022-08-07T08:13:52.872Z,20.60
2022-08-07T08:16:25.203Z,20.60
2022-08-07T08:18:51.870Z,20.60
2022-08-07T08:21:18.328Z,20.60
2022-08-07T08:23:45.675Z,20.60
2022-08-07T08:26:12.655Z,20.60
2022-08-07T08:28:44.958Z,20.60
2022-08-07T08:31:14.792Z,20.60
2022-08-07T08:33:43.853Z,20.60
2022-08-07T08:36:16.164Z,20.60
2022-08-07T08:38:42.647Z,20.60
2022-08-07T08:41:11.985Z,20.60
2022-08-07T08:43:42.739Z,20.60
2022-08-07T08:46:16.906Z,20.60
2022-08-07T08:48:51.034Z,20.80
2022-08-07T08:51:49.726Z,20.60
2022-08-07T08:54:04.102Z,19.70
2022-08-07T08:56:30.559Z,20.60
2022-08-07T08:58:57.025Z,20.60
2022-08-07T09:01:24.492Z,20.60
2022-08-07T09:03:56.703Z,20.60
2022-08-07T09:06:23.332Z,20.60
2022-08-07T09:08:51.187Z,20.60
2022-08-07T09:11:24.413Z,20.60
2022-08-07T09:14:04.305Z,20.60
2022-08-07T09:16:31.079Z,20.60
2022-08-07T09:18:58.404Z,20.60
2022-08-07T09:21:57.786Z,20.60
2022-08-07T09:24:30.451Z,20.60
2022-08-07T09:26:58.275Z,20.50
2022-08-07T09:30:03.833Z,20.50
2022-08-07T09:32:18.775Z,20.60
2022-08-07T09:34:45.372Z,20.90
2022-08-07T09:37:20.772Z,20.60
2022-08-07T09:40:07.156Z,20.60
2022-08-07T09:42:35.299Z,20.60
2022-08-07T09:47:27.513Z,20.60
2022-08-07T09:47:59.012Z,20.60
2022-08-07T09:50:30.384Z,20.50
2022-08-07T09:52:56.842Z,20.60
2022-08-07T09:55:29.310Z,19.90
2022-08-07T09:58:09.715Z,20.60
2022-08-07T10:00:38.094Z,20.60
2022-08-07T10:03:08.477Z,20.60
2022-08-07T10:06:00.274Z,20.60
2022-08-07T10:08:29.047Z,20.60
2022-08-07T10:12:00.001Z,20.50
2022-08-07T10:14:00.200Z,20.50
2022-08-07T10:16:27.973Z,20.60
2022-08-07T10:18:54.417Z,20.80
2022-08-07T10:21:50.472Z,21.30
2022-08-07T10:24:08.611Z,21.60
2022-08-07T10:26:36.457Z,20.60
2022-08-07T10:29:02.951Z,20.60
2022-08-07T10:31:31.432Z,20.80
2022-08-07T10:34:15.244Z,20.60
2022-08-07T10:36:45.564Z,20.60
2022-08-07T10:39:14.082Z,20.60
2022-08-07T10:41:52.413Z,20.60
2022-08-07T10:44:33.733Z,20.60
2022-08-07T10:47:05.765Z,20.60
2022-08-07T10:49:49.269Z,20.70
2022-08-07T10:52:17.623Z,20.60
2022-08-07T10:54:53.529Z,20.60
2022-08-07T10:57:34.588Z,20.60
2022-08-07T11:00:01.571Z,20.60
2022-08-07T11:02:34.295Z,20.60
2022-08-07T11:05:10.146Z,20.60
2022-08-07T11:08:00.543Z,21.80
2022-08-07T11:10:27.329Z,20.60
2022-08-07T11:13:02.127Z,20.60
2022-08-07T11:15:31.759Z,20.60
2022-08-07T11:18:03.574Z,20.60
2022-08-07T11:20:30.987Z,19.90
2022-08-07T11:22:57.452Z,20.60
2022-08-07T11:25:23.918Z,20.60
2022-08-07T11:28:02.513Z,20.60
2022-08-07T11:30:41.509Z,20.60
2022-08-07T11:33:14.298Z,20.60
2022-08-07T11:35:59.686Z,20.60
2022-08-07T11:38:28.310Z,20.80
2022-08-07T11:40:54.947Z,20.60
2022-08-07T11:43:29.816Z,20.60
2022-08-07T11:46:09.265Z,20.70
2022-08-07T11:48:35.895Z,20.60
2022-08-07T11:51:04.055Z,20.60
2022-08-07T11:53:35.657Z,20.60
2022-08-07T11:56:25.546Z,20.60
2022-08-07T11:58:49.770Z,20.60
2022-08-07T12:01:20.436Z,20.60
2022-08-07T12:03:48.680Z,20.60
2022-08-07T12:06:39.049Z,20.60
2022-08-07T12:09:01.639Z,20.40
2022-08-07T12:11:32.576Z,20.70
2022-08-07T12:13:59.121Z,20.60
2022-08-07T12:16:30.183Z,20.60
2022-08-07T12:18:57.371Z,20.60
2022-08-07T12:21:56.019Z,21.20
2022-08-07T12:24:36.742Z,20.60
2022-08-07T12:26:56.759Z,20.60
2022-08-07T12:29:38.814Z,20.60
2022-08-07T12:32:12.063Z,20.60
2022-08-07T12:34:39.200Z,20.60
2022-08-07T12:37:08.430Z,20.70
2022-08-07T12:39:50.811Z,20.60
2022-08-07T12:42:17.888Z,20.60
2022-08-07T12:44:53.933Z,20.60
2022-08-07T12:47:27.052Z,20.60
2022-08-07T12:50:04.350Z,20.60
2022-08-07T12:52:34.213Z,20.60
2022-08-07T12:55:05.246Z,20.60
2022-08-07T12:57:38.760Z,20.60
2022-08-07T13:00:32.507Z,20.60
2022-08-07T13:03:06.827Z,20.60
2022-08-07T13:06:03.596Z,20.60
2022-08-07T13:08:20.354Z,21.00
2022-08-07T13:10:51.411Z,20.60
2022-08-07T13:13:48.031Z,20.60
2022-08-07T13:16:05.272Z,20.60
2022-08-07T13:18:34.213Z,20.60
2022-08-07T13:21:00.785Z,20.60
2022-08-07T13:24:01.138Z,21.80
2022-08-07T13:26:15.905Z,20.60
2022-08-07T13:28:44.827Z,20.60
2022-08-07T13:31:13.551Z,21.70
2022-08-07T13:34:33.578Z,20.60
2022-08-07T13:36:26.675Z,20.70
2022-08-07T13:38:54.387Z,20.60
2022-08-07T13:41:21.358Z,20.60
2022-08-07T13:43:52.528Z,20.60
2022-08-07T13:46:29.914Z,20.60
2022-08-07T13:48:59.540Z,20.60
2022-08-07T13:51:27.967Z,20.60
2022-08-07T13:54:16.371Z,20.60
2022-08-07T13:56:51.652Z,20.60
2022-08-07T13:59:25.206Z,20.60
2022-08-07T14:02:03.804Z,20.60
2022-08-07T14:04:36.203Z,20.60
2022-08-07T14:07:03.892Z,20.60
2022-08-07T14:10:15.632Z,20.60
2022-08-07T14:12:16.877Z,20.60
2022-08-07T14:14:54.001Z,20.60
2022-08-07T14:18:12.654Z,20.60
2022-08-07T14:20:40.630Z,20.60
2022-08-07T14:22:53.336Z,21.00
2022-08-07T14:25:22.527Z,20.60
2022-08-07T14:28:10.607Z,20.70
2022-08-07T14:30:35.826Z,20.60
2022-08-07T14:33:07.200Z,20.60
2022-08-07T14:35:44.759Z,20.60
2022-08-07T14:38:26.818Z,20.80
2022-08-07T14:40:57.627Z,20.50
2022-08-07T14:43:57.744Z,20.60
2022-08-07T14:46:10.981Z,19.70
2022-08-07T14:48:43.904Z,20.60
2022-08-07T14:56:47.716Z,20.60
2022-08-07T15:00:03.596Z,20.60
2022-08-07T15:02:00.649Z,20.60
2022-08-07T15:04:29.424Z,20.60
2022-08-07T15:07:00.978Z,20.60
2022-08-07T15:09:57.674Z,20.60
2022-08-07T15:15:00.410Z,20.50
2022-08-07T15:17:55.073Z,20.70
2022-08-07T15:20:31.774Z,20.60
2022-08-07T15:23:00.117Z,20.60
2022-08-07T15:25:43.734Z,20.60
2022-08-07T15:33:43.119Z,20.60
2022-08-07T15:36:09.692Z,20.60
2022-08-07T15:38:59.312Z,20.60
2022-08-07T15:41:23.969Z,20.60
2022-08-07T15:44:09.116Z,20.60
2022-08-07T15:46:38.489Z,20.60
2022-08-07T15:49:25.393Z,20.60
2022-08-07T15:52:10.622Z,20.60
2022-08-07T15:54:40.536Z,20.60
2022-08-07T15:57:10.602Z,20.70
2022-08-07T15:59:53.632Z,20.60
2022-08-07T16:02:27.348Z,20.50
2022-08-07T16:04:54.561Z,20.60
2022-08-07T16:08:33.394Z,20.60
2022-08-07T16:10:14.281Z,20.60
2022-08-07T16:12:41.387Z,20.60
2022-08-07T16:15:54.601Z,20.50
2022-08-07T16:18:14.280Z,20.50
2022-08-07T16:21:56.878Z,19.50
2022-08-07T16:23:53.510Z,21.30
2022-08-07T16:26:30.781Z,20.50
2022-08-07T16:30:06.017Z,20.50
2022-08-07T16:31:50.950Z,20.50
2022-08-07T16:34:24.575Z,20.50
2022-08-07T16:37:03.266Z,20.50
2022-08-07T16:39:48.724Z,20.50
2022-08-07T16:42:16.024Z,20.50
2022-08-07T16:45:14.152Z,20.50
2022-08-07T16:47:51.171Z,21.30
2022-08-07T16:50:35.727Z,20.50
2022-08-07T16:53:14.767Z,20.50
2022-08-07T16:55:48.307Z,19.60
2022-08-07T16:58:15.894Z,20.50
2022-08-07T17:00:42.449Z,20.60
2022-08-07T17:03:09.242Z,20.90
2022-08-07T17:06:01.916Z,19.50
2022-08-07T17:08:26.097Z,20.60
2022-08-07T17:10:54.875Z,20.50
2022-08-07T17:13:41.664Z,20.50
2022-08-07T17:16:17.688Z,20.60
2022-08-07T17:18:45.911Z,20.50
2022-08-07T17:21:19.000Z,20.30
2022-08-07T17:23:49.371Z,20.50
2022-08-07T17:26:23.603Z,20.50
2022-08-07T17:28:56.988Z,20.80
2022-08-07T17:31:23.543Z,20.50
2022-08-07T17:34:32.528Z,20.60
2022-08-07T17:36:57.648Z,20.60
2022-08-07T17:39:22.909Z,20.50
2022-08-07T17:42:09.353Z,20.60
2022-08-07T17:44:41.679Z,20.50
2022-08-07T17:47:16.848Z,20.50
2022-08-07T17:49:58.640Z,20.40
2022-08-07T17:52:30.388Z,20.30
2022-08-07T17:54:57.469Z,20.50
2022-08-07T17:57:56.242Z,20.60
2022-08-07T18:00:12.277Z,20.60
2022-08-07T18:02:58.745Z,20.60
2022-08-07T18:05:25.194Z,20.50
2022-08-07T18:07:51.700Z,20.50
2022-08-07T18:10:31.970Z,20.50
2022-08-07T18:12:59.393Z,20.50
2022-08-07T18:15:32.649Z,20.50
2022-08-07T18:18:45.378Z,20.50
2022-08-07T18:21:09.410Z,20.50
2022-08-07T18:23:43.120Z,20.50
2022-08-07T18:26:14.954Z,20.50
2022-08-07T18:28:58.160Z,20.50
2022-08-07T18:31:25.475Z,20.50
2022-08-07T18:34:00.277Z,20.50
2022-08-07T18:36:33.196Z,20.50
2022-08-07T18:40:06.559Z,20.80
2022-08-07T18:41:46.753Z,20.60
2022-08-07T18:44:13.679Z,20.50
2022-08-07T18:46:43.195Z,20.80
2022-08-07T18:50:33.099Z,21.40
2022-08-07T18:52:33.709Z,20.50
2022-08-07T18:54:49.663Z,20.30
2022-08-07T18:57:29.824Z,20.60
2022-08-07T18:59:59.127Z,20.50
2022-08-07T19:02:34.250Z,20.50
2022-08-07T19:05:15.121Z,20.50
2022-08-07T19:07:51.945Z,21.40
2022-08-07T19:10:24.033Z,20.50
2022-08-07T19:13:09.925Z,20.50
2022-08-07T19:16:05.428Z,20.50
2022-08-07T19:18:34.479Z,20.50
2022-08-07T19:21:09.311Z,20.50
2022-08-07T19:23:59.134Z,20.50
2022-08-07T19:26:28.793Z,20.50
2022-08-07T19:30:54.411Z,20.50
2022-08-07T19:32:10.930Z,20.50
2022-08-07T19:34:34.353Z,20.50
2022-08-07T19:37:10.045Z,20.50
2022-08-07T19:39:57.008Z,20.50
2022-08-07T19:42:25.249Z,20.50
2022-08-07T19:44:51.790Z,20.50
2022-08-07T19:47:18.253Z,20.50
2022-08-07T19:49:56.767Z,20.50
2022-08-07T19:52:25.513Z,20.50
2022-08-07T19:54:56.583Z,20.50
2022-08-07T19:58:01.223Z,20.60
2022-08-07T20:00:10.485Z,20.50
2022-08-07T20:02:39.121Z,21.20
2022-08-07T20:05:07.727Z,20.50
2022-08-07T20:07:47.432Z,20.50
2022-08-07T20:10:36.151Z,20.50
2022-08-07T20:13:06.143Z,20.50
2022-08-07T20:15:37.182Z,20.50
2022-08-07T20:18:04.403Z,20.50
2022-08-07T20:20:30.966Z,20.50
2022-08-07T20:22:57.479Z,20.50
2022-08-07T20:25:23.966Z,20.50
2022-08-07T20:27:54.173Z,20.50
2022-08-07T20:30:25.164Z,20.50
2022-08-07T20:32:51.909Z,20.50
2022-08-07T20:35:21.948Z,20.50
2022-08-07T20:37:58.318Z,20.60
2022-08-07T20:40:32.787Z,20.50
2022-08-07T20:43:00.923Z,20.40
2022-08-07T20:45:32.789Z,20.30
2022-08-07T20:48:28.287Z,20.30
2022-08-07T20:50:55.571Z,20.30
2022-08-07T20:53:25.970Z,20.20
2022-08-07T20:56:08.451Z,20.10
2022-08-07T20:58:35.025Z,20.10
2022-08-07T21:01:01.458Z,20.10
2022-08-07T21:03:27.957Z,20.10
2022-08-07T21:05:56.600Z,19.20
2022-08-07T21:08:35.020Z,20.00
2022-08-07T21:11:04.807Z,19.90
2022-08-07T21:13:57.950Z,19.90
2022-08-07T21:16:20.405Z,19.90
2022-08-07T21:18:53.229Z,20.00
2022-08-07T21:21:19.822Z,19.90
2022-08-07T21:23:53.716Z,20.00
2022-08-07T21:26:20.205Z,19.90
2022-08-07T21:28:50.875Z,20.00
2022-08-07T21:31:17.672Z,20.00
2022-08-07T21:33:58.033Z,20.30
2022-08-07T21:36:30.838Z,20.00
2022-08-07T21:38:59.092Z,19.90
2022-08-07T21:41:26.461Z,19.90
2022-08-07T21:43:56.102Z,19.90
2022-08-07T21:46:24.774Z,19.90
2022-08-07T21:48:58.023Z,19.90
2022-08-07T21:51:25.453Z,19.90
2022-08-07T21:53:53.546Z,20.20
2022-08-07T21:56:36.226Z,19.90
2022-08-07T21:59:06.172Z,20.30
2022-08-07T22:02:07.043Z,19.90
2022-08-07T22:04:20.357Z,19.90
2022-08-07T22:06:49.705Z,19.90
2022-08-07T22:09:16.417Z,19.90
2022-08-07T22:12:04.985Z,19.90
2022-08-07T22:14:34.793Z,19.90
2022-08-07T22:17:02.823Z,19.90
2022-08-07T22:19:30.712Z,19.90
2022-08-07T22:22:04.326Z,19.90
2022-08-07T22:24:35.147Z,19.90
2022-08-07T22:27:01.595Z,19.90
2022-08-07T22:29:33.708Z,19.80
2022-08-07T22:32:05.797Z,19.90
2022-08-07T22:34:35.756Z,19.90
2022-08-07T22:37:02.473Z,19.80
2022-08-07T22:39:29.571Z,19.80
2022-08-07T22:42:03.751Z,20.10
2022-08-07T22:44:58.484Z,19.80
2022-08-07T22:47:25.768Z,19.80
2022-08-07T22:49:55.065Z,19.80
2022-08-07T22:52:39.828Z,20.80
2022-08-07T22:55:14.935Z,20.60
2022-08-07T22:57:49.816Z,19.80
2022-08-07T23:00:16.387Z,19.80
2022-08-07T23:02:43.178Z,19.80
2022-08-07T23:06:10.293Z,19.80
2022-08-07T23:07:57.347Z,19.70
2022-08-07T23:10:37.515Z,19.70
2022-08-07T23:13:07.545Z,19.70
2022-08-07T23:16:06.215Z,19.80
2022-08-07T23:18:20.738Z,19.70
2022-08-07T23:20:53.228Z,19.70
2022-08-07T23:24:05.112Z,19.70
2022-08-07T23:26:06.501Z,19.70
2022-08-07T23:28:32.938Z,19.70
2022-08-07T23:31:07.080Z,19.70
2022-08-07T23:34:36.602Z,19.70
2022-08-07T23:36:28.970Z,19.70
2022-08-07T23:38:56.384Z,19.70
2022-08-07T23:41:24.382Z,19.70
2022-08-07T23:43:59.597Z,19.70
2022-08-07T23:46:27.316Z,19.70
2022-08-07T23:48:53.900Z,19.70
2022-08-07T23:53:01.713Z,19.70
2022-08-07T23:54:11.556Z,19.70
2022-08-07T23:56:53.593Z,19.70
